sensor_id;sensor_type;location;lat;lon;timestamp;P1;durP1;ratioP1;P2;durP2;ratioP2
60312;SDS011;46158;52.850;6.970;2023-03-14T00:00:14;18.67;;;3.85;;
60312;SDS011;46158;52.850;6.970;2023-03-14T00:02:40;16.67;;;3.72;;
60312;SDS011;46158;52.850;6.970;2023-03-14T00:05:07;19.02;;;3.90;;
60312;SDS011;46158;52.850;6.970;2023-03-14T00:07:34;18.77;;;3.40;;
60312;SDS011;46158;52.850;6.970;2023-03-14T00:10:06;18.05;;;3.75;;
60312;SDS011;46158;52.850;6.970;2023-03-14T00:12:35;17.60;;;3.65;;
60312;SDS011;46158;52.850;6.970;2023-03-14T00:15:03;14.40;;;3.80;;
60312;SDS011;46158;52.850;6.970;2023-03-14T00:17:30;15.65;;;3.42;;
60312;SDS011;46158;52.850;6.970;2023-03-14T00:19:56;17.55;;;3.70;;
60312;SDS011;46158;52.850;6.970;2023-03-14T00:22:22;17.27;;;3.88;;
60312;SDS011;46158;52.850;6.970;2023-03-14T00:24:49;18.08;;;3.85;;
60312;SDS011;46158;52.850;6.970;2023-03-14T00:27:15;16.33;;;3.47;;
60312;SDS011;46158;52.850;6.970;2023-03-14T00:29:42;14.13;;;3.33;;
60312;SDS011;46158;52.850;6.970;2023-03-14T00:32:08;16.65;;;3.47;;
60312;SDS011;46158;52.850;6.970;2023-03-14T00:34:34;18.17;;;3.78;;
60312;SDS011;46158;52.850;6.970;2023-03-14T00:37:00;15.57;;;3.20;;
60312;SDS011;46158;52.850;6.970;2023-03-14T00:39:25;16.33;;;3.67;;
60312;SDS011;46158;52.850;6.970;2023-03-14T00:41:51;16.83;;;3.40;;
60312;SDS011;46158;52.850;6.970;2023-03-14T00:44:17;16.45;;;3.63;;
60312;SDS011;46158;52.850;6.970;2023-03-14T00:46:42;16.02;;;3.10;;
60312;SDS011;46158;52.850;6.970;2023-03-14T00:49:08;14.40;;;3.55;;
60312;SDS011;46158;52.850;6.970;2023-03-14T00:51:34;17.00;;;3.53;;
60312;SDS011;46158;52.850;6.970;2023-03-14T00:53:59;16.30;;;3.53;;
60312;SDS011;46158;52.850;6.970;2023-03-14T00:56:25;14.82;;;3.38;;
60312;SDS011;46158;52.850;6.970;2023-03-14T00:58:54;16.38;;;3.50;;
60312;SDS011;46158;52.850;6.970;2023-03-14T01:01:20;14.32;;;3.35;;
60312;SDS011;46158;52.850;6.970;2023-03-14T01:03:46;15.05;;;3.40;;
60312;SDS011;46158;52.850;6.970;2023-03-14T01:06:15;15.35;;;3.20;;
60312;SDS011;46158;52.850;6.970;2023-03-14T01:08:49;15.73;;;3.53;;
60312;SDS011;46158;52.850;6.970;2023-03-14T01:11:18;15.77;;;3.40;;
60312;SDS011;46158;52.850;6.970;2023-03-14T01:13:49;14.45;;;3.33;;
60312;SDS011;46158;52.850;6.970;2023-03-14T01:16:15;13.98;;;3.45;;
60312;SDS011;46158;52.850;6.970;2023-03-14T01:18:43;14.98;;;3.70;;
60312;SDS011;46158;52.850;6.970;2023-03-14T01:21:11;15.15;;;3.50;;
60312;SDS011;46158;52.850;6.970;2023-03-14T01:23:48;14.15;;;3.72;;
60312;SDS011;46158;52.850;6.970;2023-03-14T01:26:16;15.60;;;3.40;;
60312;SDS011;46158;52.850;6.970;2023-03-14T01:28:58;15.23;;;3.58;;
60312;SDS011;46158;52.850;6.970;2023-03-14T01:31:36;12.15;;;3.08;;
60312;SDS011;46158;52.850;6.970;2023-03-14T01:34:04;12.55;;;3.03;;
60312;SDS011;46158;52.850;6.970;2023-03-14T01:36:33;14.82;;;3.40;;
60312;SDS011;46158;52.850;6.970;2023-03-14T01:39:00;13.10;;;3.33;;
60312;SDS011;46158;52.850;6.970;2023-03-14T01:41:27;12.80;;;2.95;;
60312;SDS011;46158;52.850;6.970;2023-03-14T01:43:52;11.55;;;2.75;;
60312;SDS011;46158;52.850;6.970;2023-03-14T01:46:20;12.52;;;2.90;;
60312;SDS011;46158;52.850;6.970;2023-03-14T01:49:04;13.23;;;2.90;;
60312;SDS011;46158;52.850;6.970;2023-03-14T01:54:02;12.50;;;2.97;;
60312;SDS011;46158;52.850;6.970;2023-03-14T01:56:36;15.35;;;2.95;;
60312;SDS011;46158;52.850;6.970;2023-03-14T01:59:04;11.18;;;2.92;;
60312;SDS011;46158;52.850;6.970;2023-03-14T02:01:32;10.65;;;2.85;;
60312;SDS011;46158;52.850;6.970;2023-03-14T02:04:04;13.23;;;2.90;;
60312;SDS011;46158;52.850;6.970;2023-03-14T02:06:47;15.85;;;3.38;;
60312;SDS011;46158;52.850;6.970;2023-03-14T02:09:32;13.25;;;2.92;;
60312;SDS011;46158;52.850;6.970;2023-03-14T02:11:59;14.50;;;3.05;;
60312;SDS011;46158;52.850;6.970;2023-03-14T02:14:28;13.10;;;3.20;;
60312;SDS011;46158;52.850;6.970;2023-03-14T02:16:57;15.65;;;3.22;;
60312;SDS011;46158;52.850;6.970;2023-03-14T02:19:47;13.18;;;3.10;;
60312;SDS011;46158;52.850;6.970;2023-03-14T02:22:15;13.65;;;3.28;;
60312;SDS011;46158;52.850;6.970;2023-03-14T02:27:43;15.35;;;3.08;;
60312;SDS011;46158;52.850;6.970;2023-03-14T02:30:11;15.88;;;3.22;;
60312;SDS011;46158;52.850;6.970;2023-03-14T02:33:10;12.68;;;2.80;;
60312;SDS011;46158;52.850;6.970;2023-03-14T02:35:46;10.50;;;2.65;;
60312;SDS011;46158;52.850;6.970;2023-03-14T02:38:29;14.40;;;3.22;;
60312;SDS011;46158;52.850;6.970;2023-03-14T02:41:08;15.43;;;3.08;;
60312;SDS011;46158;52.850;6.970;2023-03-14T02:43:34;12.77;;;3.00;;
60312;SDS011;46158;52.850;6.970;2023-03-14T02:46:01;11.23;;;2.72;;
60312;SDS011;46158;52.850;6.970;2023-03-14T02:48:35;11.88;;;2.70;;
60312;SDS011;46158;52.850;6.970;2023-03-14T02:51:10;14.32;;;2.97;;
60312;SDS011;46158;52.850;6.970;2023-03-14T02:53:37;11.25;;;2.80;;
60312;SDS011;46158;52.850;6.970;2023-03-14T02:56:04;12.25;;;2.97;;
60312;SDS011;46158;52.850;6.970;2023-03-14T02:58:30;13.60;;;2.78;;
60312;SDS011;46158;52.850;6.970;2023-03-14T03:00:56;11.95;;;2.85;;
60312;SDS011;46158;52.850;6.970;2023-03-14T03:03:23;13.38;;;3.13;;
60312;SDS011;46158;52.850;6.970;2023-03-14T03:05:52;11.68;;;2.95;;
60312;SDS011;46158;52.850;6.970;2023-03-14T03:08:20;11.75;;;2.75;;
60312;SDS011;46158;52.850;6.970;2023-03-14T03:10:47;14.35;;;3.10;;
60312;SDS011;46158;52.850;6.970;2023-03-14T03:13:13;12.82;;;2.85;;
60312;SDS011;46158;52.850;6.970;2023-03-14T03:15:39;10.43;;;2.75;;
60312;SDS011;46158;52.850;6.970;2023-03-14T03:18:06;10.25;;;2.70;;
60312;SDS011;46158;52.850;6.970;2023-03-14T03:20:32;13.60;;;2.78;;
60312;SDS011;46158;52.850;6.970;2023-03-14T03:22:58;9.43;;;2.85;;
60312;SDS011;46158;52.850;6.970;2023-03-14T03:25:24;11.32;;;2.95;;
60312;SDS011;46158;52.850;6.970;2023-03-14T03:27:50;10.38;;;2.70;;
60312;SDS011;46158;52.850;6.970;2023-03-14T03:30:15;9.43;;;2.60;;
60312;SDS011;46158;52.850;6.970;2023-03-14T03:32:42;10.20;;;2.58;;
60312;SDS011;46158;52.850;6.970;2023-03-14T03:35:08;8.48;;;2.70;;
60312;SDS011;46158;52.850;6.970;2023-03-14T03:37:34;11.85;;;2.75;;
60312;SDS011;46158;52.850;6.970;2023-03-14T03:40:00;10.73;;;2.83;;
60312;SDS011;46158;52.850;6.970;2023-03-14T03:42:29;13.57;;;2.67;;
60312;SDS011;46158;52.850;6.970;2023-03-14T03:44:55;9.02;;;2.33;;
60312;SDS011;46158;52.850;6.970;2023-03-14T03:47:21;10.32;;;2.30;;
60312;SDS011;46158;52.850;6.970;2023-03-14T03:49:47;10.85;;;2.50;;
60312;SDS011;46158;52.850;6.970;2023-03-14T03:52:15;10.02;;;2.83;;
60312;SDS011;46158;52.850;6.970;2023-03-14T03:54:42;9.60;;;2.75;;
60312;SDS011;46158;52.850;6.970;2023-03-14T03:57:29;12.05;;;2.75;;
60312;SDS011;46158;52.850;6.970;2023-03-14T03:59:54;10.38;;;2.58;;
60312;SDS011;46158;52.850;6.970;2023-03-14T04:02:20;9.77;;;2.53;;
60312;SDS011;46158;52.850;6.970;2023-03-14T04:04:46;8.95;;;2.53;;
60312;SDS011;46158;52.850;6.970;2023-03-14T04:07:12;8.68;;;2.40;;
60312;SDS011;46158;52.850;6.970;2023-03-14T04:09:39;11.38;;;2.88;;
60312;SDS011;46158;52.850;6.970;2023-03-14T04:12:04;11.77;;;2.47;;
60312;SDS011;46158;52.850;6.970;2023-03-14T04:14:30;8.07;;;2.45;;
60312;SDS011;46158;52.850;6.970;2023-03-14T04:16:56;8.13;;;2.40;;
60312;SDS011;46158;52.850;6.970;2023-03-14T04:19:22;8.85;;;2.58;;
60312;SDS011;46158;52.850;6.970;2023-03-14T04:21:48;11.45;;;2.65;;
60312;SDS011;46158;52.850;6.970;2023-03-14T04:24:13;6.53;;;2.30;;
60312;SDS011;46158;52.850;6.970;2023-03-14T04:26:39;9.27;;;2.30;;
60312;SDS011;46158;52.850;6.970;2023-03-14T04:29:05;7.63;;;2.40;;
60312;SDS011;46158;52.850;6.970;2023-03-14T04:31:30;10.55;;;2.63;;
60312;SDS011;46158;52.850;6.970;2023-03-14T04:33:56;11.45;;;2.55;;
60312;SDS011;46158;52.850;6.970;2023-03-14T04:36:22;11.27;;;2.42;;
60312;SDS011;46158;52.850;6.970;2023-03-14T04:38:47;7.70;;;2.30;;
60312;SDS011;46158;52.850;6.970;2023-03-14T04:41:13;9.50;;;2.30;;
60312;SDS011;46158;52.850;6.970;2023-03-14T04:43:39;8.00;;;2.40;;
60312;SDS011;46158;52.850;6.970;2023-03-14T04:46:06;10.38;;;2.42;;
60312;SDS011;46158;52.850;6.970;2023-03-14T04:48:31;8.98;;;2.40;;
60312;SDS011;46158;52.850;6.970;2023-03-14T04:50:57;5.10;;;2.00;;
60312;SDS011;46158;52.850;6.970;2023-03-14T04:53:25;7.90;;;2.38;;
60312;SDS011;46158;52.850;6.970;2023-03-14T04:55:52;6.70;;;2.13;;
60312;SDS011;46158;52.850;6.970;2023-03-14T04:58:19;10.38;;;2.25;;
60312;SDS011;46158;52.850;6.970;2023-03-14T05:00:45;11.95;;;2.65;;
60312;SDS011;46158;52.850;6.970;2023-03-14T05:03:11;8.40;;;2.25;;
60312;SDS011;46158;52.850;6.970;2023-03-14T05:05:40;9.40;;;2.30;;
60312;SDS011;46158;52.850;6.970;2023-03-14T05:08:06;11.63;;;2.42;;
60312;SDS011;46158;52.850;6.970;2023-03-14T05:10:34;8.43;;;2.53;;
60312;SDS011;46158;52.850;6.970;2023-03-14T05:13:00;7.63;;;2.20;;
60312;SDS011;46158;52.850;6.970;2023-03-14T05:15:26;9.40;;;2.28;;
60312;SDS011;46158;52.850;6.970;2023-03-14T05:17:52;9.45;;;2.05;;
60312;SDS011;46158;52.850;6.970;2023-03-14T05:20:19;4.95;;;2.15;;
60312;SDS011;46158;52.850;6.970;2023-03-14T05:22:45;9.25;;;2.33;;
60312;SDS011;46158;52.850;6.970;2023-03-14T05:25:11;9.10;;;2.10;;
60312;SDS011;46158;52.850;6.970;2023-03-14T05:27:37;8.32;;;2.15;;
60312;SDS011;46158;52.850;6.970;2023-03-14T05:30:04;6.50;;;2.08;;
60312;SDS011;46158;52.850;6.970;2023-03-14T05:32:31;7.38;;;2.03;;
60312;SDS011;46158;52.850;6.970;2023-03-14T05:34:57;9.90;;;2.35;;
60312;SDS011;46158;52.850;6.970;2023-03-14T05:37:24;8.65;;;2.30;;
60312;SDS011;46158;52.850;6.970;2023-03-14T05:39:51;5.47;;;2.05;;
60312;SDS011;46158;52.850;6.970;2023-03-14T05:42:17;4.55;;;1.90;;
60312;SDS011;46158;52.850;6.970;2023-03-14T05:44:43;6.38;;;1.92;;
60312;SDS011;46158;52.850;6.970;2023-03-14T05:47:08;6.32;;;2.03;;
60312;SDS011;46158;52.850;6.970;2023-03-14T05:49:34;6.97;;;2.10;;
60312;SDS011;46158;52.850;6.970;2023-03-14T05:52:00;7.35;;;2.20;;
60312;SDS011;46158;52.850;6.970;2023-03-14T05:54:34;8.13;;;2.17;;
60312;SDS011;46158;52.850;6.970;2023-03-14T05:57:00;6.53;;;2.00;;
60312;SDS011;46158;52.850;6.970;2023-03-14T05:59:26;9.40;;;2.10;;
60312;SDS011;46158;52.850;6.970;2023-03-14T06:01:52;7.75;;;2.10;;
60312;SDS011;46158;52.850;6.970;2023-03-14T06:04:23;5.07;;;1.98;;
60312;SDS011;46158;52.850;6.970;2023-03-14T06:06:49;6.22;;;2.00;;
60312;SDS011;46158;52.850;6.970;2023-03-14T06:09:17;7.95;;;2.28;;
60312;SDS011;46158;52.850;6.970;2023-03-14T06:11:45;7.93;;;2.08;;
60312;SDS011;46158;52.850;6.970;2023-03-14T06:14:11;8.35;;;2.30;;
60312;SDS011;46158;52.850;6.970;2023-03-14T06:16:37;6.68;;;1.98;;
60312;SDS011;46158;52.850;6.970;2023-03-14T06:19:03;10.70;;;2.25;;
60312;SDS011;46158;52.850;6.970;2023-03-14T06:21:29;10.23;;;2.03;;
60312;SDS011;46158;52.850;6.970;2023-03-14T06:23:55;5.93;;;2.05;;
60312;SDS011;46158;52.850;6.970;2023-03-14T06:26:21;6.30;;;2.05;;
60312;SDS011;46158;52.850;6.970;2023-03-14T06:28:48;9.77;;;2.10;;
60312;SDS011;46158;52.850;6.970;2023-03-14T06:31:15;9.05;;;2.00;;
60312;SDS011;46158;52.850;6.970;2023-03-14T06:33:41;8.07;;;2.13;;
60312;SDS011;46158;52.850;6.970;2023-03-14T06:36:06;8.75;;;2.17;;
60312;SDS011;46158;52.850;6.970;2023-03-14T06:38:33;7.80;;;2.00;;
60312;SDS011;46158;52.850;6.970;2023-03-14T06:41:08;13.13;;;2.40;;
60312;SDS011;46158;52.850;6.970;2023-03-14T06:43:33;7.72;;;1.85;;
60312;SDS011;46158;52.850;6.970;2023-03-14T06:45:59;7.05;;;2.10;;
60312;SDS011;46158;52.850;6.970;2023-03-14T06:48:25;5.32;;;2.10;;
60312;SDS011;46158;52.850;6.970;2023-03-14T06:50:51;11.40;;;2.30;;
60312;SDS011;46158;52.850;6.970;2023-03-14T06:53:17;11.15;;;2.67;;
60312;SDS011;46158;52.850;6.970;2023-03-14T06:55:43;5.63;;;2.03;;
60312;SDS011;46158;52.850;6.970;2023-03-14T06:58:09;7.20;;;1.90;;
60312;SDS011;46158;52.850;6.970;2023-03-14T07:00:35;7.60;;;2.10;;
60312;SDS011;46158;52.850;6.970;2023-03-14T07:03:03;6.25;;;2.10;;
60312;SDS011;46158;52.850;6.970;2023-03-14T07:05:29;9.35;;;2.22;;
60312;SDS011;46158;52.850;6.970;2023-03-14T07:07:56;7.75;;;2.10;;
60312;SDS011;46158;52.850;6.970;2023-03-14T07:10:22;7.38;;;2.10;;
60312;SDS011;46158;52.850;6.970;2023-03-14T07:12:48;7.25;;;2.08;;
60312;SDS011;46158;52.850;6.970;2023-03-14T07:15:14;8.93;;;2.40;;
60312;SDS011;46158;52.850;6.970;2023-03-14T07:17:49;8.88;;;2.40;;
60312;SDS011;46158;52.850;6.970;2023-03-14T07:20:15;9.23;;;1.92;;
60312;SDS011;46158;52.850;6.970;2023-03-14T07:22:41;9.48;;;2.03;;
60312;SDS011;46158;52.850;6.970;2023-03-14T07:25:07;10.07;;;2.20;;
60312;SDS011;46158;52.850;6.970;2023-03-14T07:27:34;10.43;;;2.10;;
60312;SDS011;46158;52.850;6.970;2023-03-14T07:30:00;5.65;;;2.20;;
60312;SDS011;46158;52.850;6.970;2023-03-14T07:32:26;5.35;;;2.05;;
60312;SDS011;46158;52.850;6.970;2023-03-14T07:34:52;5.85;;;2.00;;
60312;SDS011;46158;52.850;6.970;2023-03-14T07:37:17;6.47;;;2.17;;
60312;SDS011;46158;52.850;6.970;2023-03-14T07:39:43;7.25;;;2.15;;
60312;SDS011;46158;52.850;6.970;2023-03-14T07:42:09;7.75;;;2.20;;
60312;SDS011;46158;52.850;6.970;2023-03-14T07:44:36;7.32;;;2.08;;
60312;SDS011;46158;52.850;6.970;2023-03-14T07:47:01;8.45;;;2.10;;
60312;SDS011;46158;52.850;6.970;2023-03-14T07:49:28;9.02;;;2.33;;
60312;SDS011;46158;52.850;6.970;2023-03-14T07:51:54;7.20;;;2.28;;
60312;SDS011;46158;52.850;6.970;2023-03-14T07:54:20;5.88;;;1.83;;
60312;SDS011;46158;52.850;6.970;2023-03-14T07:56:46;6.45;;;2.10;;
60312;SDS011;46158;52.850;6.970;2023-03-14T07:59:11;7.55;;;2.10;;
60312;SDS011;46158;52.850;6.970;2023-03-14T08:01:37;6.43;;;1.83;;
60312;SDS011;46158;52.850;6.970;2023-03-14T08:04:03;4.88;;;2.00;;
60312;SDS011;46158;52.850;6.970;2023-03-14T08:06:29;4.82;;;1.85;;
60312;SDS011;46158;52.850;6.970;2023-03-14T08:08:55;5.13;;;1.98;;
60312;SDS011;46158;52.850;6.970;2023-03-14T08:11:21;6.68;;;1.83;;
60312;SDS011;46158;52.850;6.970;2023-03-14T08:13:46;5.68;;;1.90;;
60312;SDS011;46158;52.850;6.970;2023-03-14T08:16:17;5.60;;;2.03;;
60312;SDS011;46158;52.850;6.970;2023-03-14T08:18:44;7.90;;;1.77;;
60312;SDS011;46158;52.850;6.970;2023-03-14T08:21:10;8.80;;;1.92;;
60312;SDS011;46158;52.850;6.970;2023-03-14T08:23:36;5.90;;;1.60;;
60312;SDS011;46158;52.850;6.970;2023-03-14T08:26:01;4.90;;;1.60;;
60312;SDS011;46158;52.850;6.970;2023-03-14T08:28:27;4.25;;;1.40;;
60312;SDS011;46158;52.850;6.970;2023-03-14T08:30:56;5.68;;;1.70;;
60312;SDS011;46158;52.850;6.970;2023-03-14T08:33:23;3.78;;;1.63;;
60312;SDS011;46158;52.850;6.970;2023-03-14T08:35:53;6.40;;;1.90;;
60312;SDS011;46158;52.850;6.970;2023-03-14T08:38:23;4.70;;;1.63;;
60312;SDS011;46158;52.850;6.970;2023-03-14T08:40:54;2.80;;;1.30;;
60312;SDS011;46158;52.850;6.970;2023-03-14T08:43:22;5.10;;;1.90;;
60312;SDS011;46158;52.850;6.970;2023-03-14T08:45:48;4.95;;;1.55;;
60312;SDS011;46158;52.850;6.970;2023-03-14T08:48:14;7.35;;;1.63;;
60312;SDS011;46158;52.850;6.970;2023-03-14T08:50:42;5.20;;;1.58;;
60312;SDS011;46158;52.850;6.970;2023-03-14T08:53:09;5.97;;;1.70;;
60312;SDS011;46158;52.850;6.970;2023-03-14T08:55:35;4.72;;;1.38;;
60312;SDS011;46158;52.850;6.970;2023-03-14T08:58:01;4.93;;;1.55;;
60312;SDS011;46158;52.850;6.970;2023-03-14T09:00:26;2.95;;;1.35;;
60312;SDS011;46158;52.850;6.970;2023-03-14T09:02:52;4.18;;;1.30;;
60312;SDS011;46158;52.850;6.970;2023-03-14T09:05:18;3.40;;;1.20;;
60312;SDS011;46158;52.850;6.970;2023-03-14T09:07:44;3.92;;;1.70;;
60312;SDS011;46158;52.850;6.970;2023-03-14T09:10:10;3.75;;;1.20;;
60312;SDS011;46158;52.850;6.970;2023-03-14T09:12:37;4.00;;;1.55;;
60312;SDS011;46158;52.850;6.970;2023-03-14T09:15:06;1.88;;;1.30;;
60312;SDS011;46158;52.850;6.970;2023-03-14T09:17:32;8.98;;;1.90;;
60312;SDS011;46158;52.850;6.970;2023-03-14T09:19:58;5.32;;;1.50;;
60312;SDS011;46158;52.850;6.970;2023-03-14T09:22:24;3.65;;;1.13;;
60312;SDS011;46158;52.850;6.970;2023-03-14T09:24:49;4.00;;;1.30;;
60312;SDS011;46158;52.850;6.970;2023-03-14T09:27:15;2.40;;;1.27;;
60312;SDS011;46158;52.850;6.970;2023-03-14T09:29:41;7.22;;;1.48;;
60312;SDS011;46158;52.850;6.970;2023-03-14T09:32:06;4.43;;;1.40;;
60312;SDS011;46158;52.850;6.970;2023-03-14T09:34:32;3.80;;;1.00;;
60312;SDS011;46158;52.850;6.970;2023-03-14T09:36:58;6.47;;;1.17;;
60312;SDS011;46158;52.850;6.970;2023-03-14T09:39:24;2.40;;;1.20;;
60312;SDS011;46158;52.850;6.970;2023-03-14T09:41:51;3.58;;;1.38;;
60312;SDS011;46158;52.850;6.970;2023-03-14T09:46:54;5.25;;;1.45;;
60312;SDS011;46158;52.850;6.970;2023-03-14T09:51:54;3.78;;;1.08;;
60312;SDS011;46158;52.850;6.970;2023-03-14T09:54:36;4.00;;;1.48;;
60312;SDS011;46158;52.850;6.970;2023-03-14T09:57:09;1.75;;;1.17;;
60312;SDS011;46158;52.850;6.970;2023-03-14T09:59:38;3.15;;;1.30;;
60312;SDS011;46158;52.850;6.970;2023-03-14T10:02:38;3.30;;;1.17;;
60312;SDS011;46158;52.850;6.970;2023-03-14T10:04:59;6.60;;;1.55;;
60312;SDS011;46158;52.850;6.970;2023-03-14T10:07:29;5.40;;;1.30;;
60312;SDS011;46158;52.850;6.970;2023-03-14T10:12:31;2.63;;;1.08;;
60312;SDS011;46158;52.850;6.970;2023-03-14T10:15:08;3.70;;;1.30;;
60312;SDS011;46158;52.850;6.970;2023-03-14T10:18:10;7.22;;;1.63;;
60312;SDS011;46158;52.850;6.970;2023-03-14T10:20:36;6.28;;;1.40;;
60312;SDS011;46158;52.850;6.970;2023-03-14T10:25:57;8.20;;;1.60;;
60312;SDS011;46158;52.850;6.970;2023-03-14T10:28:38;5.60;;;1.70;;
60312;SDS011;46158;52.850;6.970;2023-03-14T10:31:08;10.75;;;2.10;;
60312;SDS011;46158;52.850;6.970;2023-03-14T10:33:35;8.63;;;2.20;;
60312;SDS011;46158;52.850;6.970;2023-03-14T10:36:06;15.13;;;2.50;;
60312;SDS011;46158;52.850;6.970;2023-03-14T10:38:51;14.48;;;2.50;;
60312;SDS011;46158;52.850;6.970;2023-03-14T10:41:46;7.50;;;1.90;;
60312;SDS011;46158;52.850;6.970;2023-03-14T10:44:15;8.43;;;2.28;;
60312;SDS011;46158;52.850;6.970;2023-03-14T10:46:59;10.07;;;2.10;;
60312;SDS011;46158;52.850;6.970;2023-03-14T10:49:30;7.22;;;2.00;;
60312;SDS011;46158;52.850;6.970;2023-03-14T10:52:15;7.82;;;1.95;;
60312;SDS011;46158;52.850;6.970;2023-03-14T10:54:57;4.65;;;1.83;;
60312;SDS011;46158;52.850;6.970;2023-03-14T10:57:25;8.15;;;2.38;;
60312;SDS011;46158;52.850;6.970;2023-03-14T10:59:51;6.15;;;1.75;;
60312;SDS011;46158;52.850;6.970;2023-03-14T11:07:50;5.93;;;1.70;;
60312;SDS011;46158;52.850;6.970;2023-03-14T11:10:32;6.28;;;1.85;;
60312;SDS011;46158;52.850;6.970;2023-03-14T11:19:16;8.95;;;2.00;;
60312;SDS011;46158;52.850;6.970;2023-03-14T11:22:11;8.25;;;2.20;;
60312;SDS011;46158;52.850;6.970;2023-03-14T11:30:18;11.13;;;2.95;;
60312;SDS011;46158;52.850;6.970;2023-03-14T11:32:50;10.68;;;2.45;;
60312;SDS011;46158;52.850;6.970;2023-03-14T11:35:41;8.93;;;2.20;;
60312;SDS011;46158;52.850;6.970;2023-03-14T11:40:59;33.90;;;13.38;;
60312;SDS011;46158;52.850;6.970;2023-03-14T11:43:28;58.92;;;28.52;;
60312;SDS011;46158;52.850;6.970;2023-03-14T11:46:25;89.38;;;44.97;;
60312;SDS011;46158;52.850;6.970;2023-03-14T11:49:05;90.85;;;48.50;;
60312;SDS011;46158;52.850;6.970;2023-03-14T11:51:52;96.75;;;49.50;;
60312;SDS011;46158;52.850;6.970;2023-03-14T11:54:36;85.53;;;44.90;;
60312;SDS011;46158;52.850;6.970;2023-03-14T11:57:18;80.90;;;41.17;;
60312;SDS011;46158;52.850;6.970;2023-03-14T11:59:50;72.13;;;38.83;;
60312;SDS011;46158;52.850;6.970;2023-03-14T12:10:39;65.43;;;33.50;;
60312;SDS011;46158;52.850;6.970;2023-03-14T12:13:20;59.75;;;31.33;;
60312;SDS011;46158;52.850;6.970;2023-03-14T12:15:53;52.50;;;29.17;;
60312;SDS011;46158;52.850;6.970;2023-03-14T12:18:28;52.42;;;27.80;;
60312;SDS011;46158;52.850;6.970;2023-03-14T12:20:57;54.53;;;27.67;;
60312;SDS011;46158;52.850;6.970;2023-03-14T12:23:37;48.47;;;25.17;;
60312;SDS011;46158;52.850;6.970;2023-03-14T12:26:24;47.10;;;24.50;;
60312;SDS011;46158;52.850;6.970;2023-03-14T12:29:15;47.42;;;23.00;;
60312;SDS011;46158;52.850;6.970;2023-03-14T12:31:41;46.90;;;22.77;;
60312;SDS011;46158;52.850;6.970;2023-03-14T12:41:52;37.38;;;17.83;;
60312;SDS011;46158;52.850;6.970;2023-03-14T12:46:57;36.42;;;16.25;;
60312;SDS011;46158;52.850;6.970;2023-03-14T12:49:39;33.78;;;16.52;;
60312;SDS011;46158;52.850;6.970;2023-03-14T12:52:11;32.45;;;14.43;;
60312;SDS011;46158;52.850;6.970;2023-03-14T12:57:38;30.52;;;14.13;;
60312;SDS011;46158;52.850;6.970;2023-03-14T13:02:59;31.30;;;13.57;;
60312;SDS011;46158;52.850;6.970;2023-03-14T13:05:51;29.63;;;12.52;;
60312;SDS011;46158;52.850;6.970;2023-03-14T13:08:32;30.38;;;12.30;;
60312;SDS011;46158;52.850;6.970;2023-03-14T13:10:58;28.77;;;13.32;;
60312;SDS011;46158;52.850;6.970;2023-03-14T13:13:26;30.17;;;13.63;;
60312;SDS011;46158;52.850;6.970;2023-03-14T13:15:56;33.42;;;14.80;;
60312;SDS011;46158;52.850;6.970;2023-03-14T13:18:38;28.30;;;13.25;;
60312;SDS011;46158;52.850;6.970;2023-03-14T13:21:13;30.02;;;12.45;;
60312;SDS011;46158;52.850;6.970;2023-03-14T13:23:55;27.50;;;11.40;;
60312;SDS011;46158;52.850;6.970;2023-03-14T13:26:21;26.20;;;11.35;;
60312;SDS011;46158;52.850;6.970;2023-03-14T13:28:49;28.73;;;10.93;;
60312;SDS011;46158;52.850;6.970;2023-03-14T13:31:24;27.35;;;11.60;;
60312;SDS011;46158;52.850;6.970;2023-03-14T13:34:01;28.13;;;10.50;;
60312;SDS011;46158;52.850;6.970;2023-03-14T13:36:31;24.65;;;9.57;;
60312;SDS011;46158;52.850;6.970;2023-03-14T13:39:00;23.95;;;9.38;;
60312;SDS011;46158;52.850;6.970;2023-03-14T13:41:27;23.17;;;7.88;;
60312;SDS011;46158;52.850;6.970;2023-03-14T13:44:05;23.23;;;8.60;;
60312;SDS011;46158;52.850;6.970;2023-03-14T13:46:39;23.60;;;7.65;;
60312;SDS011;46158;52.850;6.970;2023-03-14T13:49:06;23.02;;;8.00;;
60312;SDS011;46158;52.850;6.970;2023-03-14T13:54:03;23.90;;;7.15;;
60312;SDS011;46158;52.850;6.970;2023-03-14T13:56:37;21.67;;;7.20;;
60312;SDS011;46158;52.850;6.970;2023-03-14T13:59:03;21.35;;;6.43;;
60312;SDS011;46158;52.850;6.970;2023-03-14T14:04:06;20.92;;;6.03;;
60312;SDS011;46158;52.850;6.970;2023-03-14T14:12:22;18.00;;;5.57;;
60312;SDS011;46158;52.850;6.970;2023-03-14T14:20:13;18.35;;;5.00;;
60312;SDS011;46158;52.850;6.970;2023-03-14T14:22:48;16.92;;;4.97;;
60312;SDS011;46158;52.850;6.970;2023-03-14T14:25:15;17.40;;;4.68;;
60312;SDS011;46158;52.850;6.970;2023-03-14T14:27:42;19.75;;;5.20;;
60312;SDS011;46158;52.850;6.970;2023-03-14T14:32:43;16.27;;;4.30;;
60312;SDS011;46158;52.850;6.970;2023-03-14T14:37:59;16.13;;;4.15;;
60312;SDS011;46158;52.850;6.970;2023-03-14T14:40:26;15.85;;;4.35;;
60312;SDS011;46158;52.850;6.970;2023-03-14T14:42:53;13.80;;;4.00;;
60312;SDS011;46158;52.850;6.970;2023-03-14T14:45:21;15.32;;;3.85;;
60312;SDS011;46158;52.850;6.970;2023-03-14T14:47:52;14.85;;;3.83;;
60312;SDS011;46158;52.850;6.970;2023-03-14T14:50:33;13.38;;;3.45;;
60312;SDS011;46158;52.850;6.970;2023-03-14T14:53:03;14.02;;;3.88;;
60312;SDS011;46158;52.850;6.970;2023-03-14T14:55:44;15.52;;;3.72;;
60312;SDS011;46158;52.850;6.970;2023-03-14T14:58:12;13.90;;;3.33;;
60312;SDS011;46158;52.850;6.970;2023-03-14T15:01:03;12.77;;;3.53;;
60312;SDS011;46158;52.850;6.970;2023-03-14T15:03:42;10.73;;;3.00;;
60312;SDS011;46158;52.850;6.970;2023-03-14T15:06:13;10.73;;;2.80;;
60312;SDS011;46158;52.850;6.970;2023-03-14T15:08:40;10.45;;;3.03;;
60312;SDS011;46158;52.850;6.970;2023-03-14T15:11:11;13.13;;;3.10;;
60312;SDS011;46158;52.850;6.970;2023-03-14T15:13:45;10.48;;;2.78;;
60312;SDS011;46158;52.850;6.970;2023-03-14T15:16:11;13.23;;;3.20;;
60312;SDS011;46158;52.850;6.970;2023-03-14T15:18:39;10.88;;;2.90;;
60312;SDS011;46158;52.850;6.970;2023-03-14T15:21:05;11.50;;;3.10;;
60312;SDS011;46158;52.850;6.970;2023-03-14T15:23:30;10.18;;;2.97;;
60312;SDS011;46158;52.850;6.970;2023-03-14T15:25:56;10.90;;;2.78;;
60312;SDS011;46158;52.850;6.970;2023-03-14T15:28:24;11.95;;;2.97;;
60312;SDS011;46158;52.850;6.970;2023-03-14T15:30:52;11.40;;;2.65;;
60312;SDS011;46158;52.850;6.970;2023-03-14T15:33:20;11.20;;;2.72;;
60312;SDS011;46158;52.850;6.970;2023-03-14T15:35:46;10.27;;;2.78;;
60312;SDS011;46158;52.850;6.970;2023-03-14T15:38:14;11.57;;;2.60;;
60312;SDS011;46158;52.850;6.970;2023-03-14T15:40:41;12.25;;;2.75;;
60312;SDS011;46158;52.850;6.970;2023-03-14T15:43:07;9.10;;;2.50;;
60312;SDS011;46158;52.850;6.970;2023-03-14T15:45:34;9.95;;;2.63;;
60312;SDS011;46158;52.850;6.970;2023-03-14T15:48:00;10.25;;;2.50;;
60312;SDS011;46158;52.850;6.970;2023-03-14T15:50:26;10.23;;;2.67;;
60312;SDS011;46158;52.850;6.970;2023-03-14T15:52:52;11.55;;;2.70;;
60312;SDS011;46158;52.850;6.970;2023-03-14T15:55:18;10.82;;;2.78;;
60312;SDS011;46158;52.850;6.970;2023-03-14T15:57:43;11.15;;;2.70;;
60312;SDS011;46158;52.850;6.970;2023-03-14T16:00:14;12.60;;;2.92;;
60312;SDS011;46158;52.850;6.970;2023-03-14T16:02:43;10.23;;;2.65;;
60312;SDS011;46158;52.850;6.970;2023-03-14T16:05:10;11.35;;;2.90;;
60312;SDS011;46158;52.850;6.970;2023-03-14T16:07:37;12.45;;;2.80;;
60312;SDS011;46158;52.850;6.970;2023-03-14T16:10:04;13.70;;;2.78;;
60312;SDS011;46158;52.850;6.970;2023-03-14T16:12:30;10.02;;;2.70;;